createdAt,value
2022-09-28T00:00:32.926Z,1.30
2022-09-28T00:05:34.554Z,1.50
2022-09-28T00:10:35.801Z,1.40
2022-09-28T00:15:37.078Z,1.42
2022-09-28T00:20:38.324Z,1.52
2022-09-28T00:25:39.583Z,1.95
2022-09-28T00:30:40.894Z,1.70
2022-09-28T00:35:43.458Z,1.58
2022-09-28T00:40:44.805Z,1.77
2022-09-28T00:45:55.693Z,1.65
2022-09-28T00:50:59.291Z,1.60
2022-09-28T00:56:07.021Z,1.88
2022-09-28T01:01:08.780Z,1.48
2022-09-28T01:06:10.395Z,1.98
2022-09-28T01:11:11.649Z,2.03
2022-09-28T01:16:19.036Z,1.98
2022-09-28T01:21:22.715Z,2.10
2022-09-28T01:26:34.680Z,1.75
2022-09-28T01:31:37.092Z,2.08
2022-09-28T01:36:47.198Z,1.70
2022-09-28T01:41:53.109Z,2.03
2022-09-28T01:46:54.576Z,1.73
2022-09-28T01:52:13.683Z,2.75
2022-09-28T01:57:25.541Z,2.78
2022-09-28T02:02:33.879Z,2.65
2022-09-28T02:07:42.430Z,3.53
2022-09-28T02:12:51.748Z,2.67
2022-09-28T02:17:53.502Z,2.85
2022-09-28T02:22:57.745Z,3.10
2022-09-28T02:28:08.297Z,2.78
2022-09-28T02:33:15.531Z,1.10
2022-09-28T02:38:17.039Z,0.40
2022-09-28T02:43:24.543Z,0.40
2022-09-28T02:48:47.206Z,0.20
2022-09-28T02:54:20.019Z,0.20
2022-09-28T02:59:46.351Z,0.30
2022-09-28T03:05:11.999Z,0.20
2022-09-28T03:10:34.458Z,0.57
2022-09-28T03:15:36.847Z,0.25
2022-09-28T03:20:38.363Z,0.65
2022-09-28T03:25:39.627Z,0.10
2022-09-28T03:30:42.157Z,0.17
2022-09-28T03:35:47.457Z,0.75
2022-09-28T03:40:56.879Z,0.20
2022-09-28T03:46:00.004Z,0.20
2022-09-28T03:51:04.407Z,0.50
2022-09-28T03:56:08.667Z,0.22
2022-09-28T04:01:16.580Z,0.32
2022-09-28T04:06:18.459Z,0.20
2022-09-28T04:11:19.851Z,0.28
2022-09-28T04:16:22.610Z,0.10
2022-09-28T04:21:24.062Z,0.60
2022-09-28T04:26:27.370Z,0.47
2022-09-28T04:31:29.944Z,0.30
2022-09-28T04:36:31.233Z,0.40
2022-09-28T04:41:33.121Z,0.50
2022-09-28T04:46:34.973Z,0.63
2022-09-28T04:51:36.266Z,0.40
2022-09-28T04:56:37.561Z,0.90
2022-09-28T05:01:39.567Z,0.60
2022-09-28T05:06:40.989Z,0.65
2022-09-28T05:11:42.286Z,0.77
2022-09-28T05:16:44.422Z,0.80
2022-09-28T05:21:46.903Z,1.20
2022-09-28T05:26:48.176Z,0.93
2022-09-28T05:31:49.495Z,0.60
2022-09-28T05:36:50.919Z,0.45
2022-09-28T05:41:52.243Z,1.05
2022-09-28T05:46:54.652Z,0.40
2022-09-28T05:51:55.915Z,0.77
2022-09-28T05:56:57.214Z,0.40
2022-09-28T06:01:58.592Z,0.68
2022-09-28T06:06:59.900Z,0.80
2022-09-28T06:12:01.346Z,0.70
2022-09-28T06:17:02.695Z,0.52
2022-09-28T06:22:05.314Z,0.80
2022-09-28T06:27:06.708Z,1.55
2022-09-28T06:32:08.345Z,0.82
2022-09-28T06:37:09.633Z,0.90
2022-09-28T06:42:10.955Z,0.88
2022-09-28T06:47:12.345Z,0.63
2022-09-28T06:52:13.767Z,1.25
2022-09-28T06:57:15.061Z,0.85
2022-09-28T07:02:16.472Z,0.60
2022-09-28T07:07:18.262Z,0.77
2022-09-28T07:12:19.638Z,0.73
2022-09-28T07:17:21.003Z,0.90
2022-09-28T07:22:36.545Z,1.33
2022-09-28T07:27:41.353Z,0.63
2022-09-28T07:32:44.899Z,0.52
2022-09-28T07:37:46.559Z,0.80
2022-09-28T07:42:48.243Z,0.77
2022-09-28T07:47:50.744Z,0.75
2022-09-28T07:52:52.097Z,0.50
2022-09-28T07:58:00.907Z,0.40
2022-09-28T08:03:02.673Z,0.80
2022-09-28T08:08:03.996Z,0.55
2022-09-28T08:13:07.541Z,0.60
2022-09-28T08:18:10.130Z,0.70
2022-09-28T08:23:11.832Z,1.95
2022-09-28T08:28:13.080Z,0.68
2022-09-28T08:33:17.761Z,0.50
2022-09-28T08:38:19.338Z,0.40
2022-09-28T08:43:38.355Z,0.60
2022-09-28T08:49:13.427Z,0.60
2022-09-28T08:54:34.263Z,1.00
2022-09-28T08:59:48.206Z,0.30
2022-09-28T09:04:51.914Z,0.63
2022-09-28T09:10:18.213Z,0.50
2022-09-28T09:15:31.195Z,0.77
2022-09-28T09:20:52.238Z,0.20
2022-09-28T09:26:03.544Z,0.20
2022-09-28T09:31:24.262Z,0.30
2022-09-28T09:36:43.881Z,0.30
2022-09-28T09:42:03.912Z,0.90
2022-09-28T09:47:11.337Z,0.43
2022-09-28T09:52:26.437Z,0.40
2022-09-28T09:57:32.839Z,0.30
2022-09-28T10:02:35.026Z,0.50
2022-09-28T10:07:59.225Z,0.50
2022-09-28T10:13:00.868Z,0.50
2022-09-28T10:18:10.021Z,0.30
2022-09-28T10:23:23.446Z,0.10
2022-09-28T10:28:49.285Z,0.20
2022-09-28T10:33:53.109Z,0.60
2022-09-28T10:38:55.798Z,0.35
2022-09-28T10:44:06.771Z,0.55
2022-09-28T10:49:18.191Z,0.63
2022-09-28T10:54:25.164Z,0.82
2022-09-28T10:59:29.530Z,0.40
2022-09-28T11:04:40.849Z,0.40
2022-09-28T11:09:45.762Z,0.60
2022-09-28T11:14:54.852Z,0.25
2022-09-28T11:20:30.857Z,0.30
2022-09-28T11:25:33.304Z,0.50
2022-09-28T11:30:45.346Z,0.50
2022-09-28T11:35:54.812Z,0.47
2022-09-28T11:41:33.395Z,0.40
2022-09-28T11:46:52.280Z,0.30
2022-09-28T11:51:57.436Z,0.30
2022-09-28T11:57:01.268Z,0.22
2022-09-28T12:02:25.919Z,0.22
2022-09-28T12:07:58.970Z,0.20
2022-09-28T12:13:14.408Z,0.40
2022-09-28T12:18:24.687Z,0.15
2022-09-28T12:23:33.821Z,0.10
2022-09-28T12:28:50.322Z,0.47
2022-09-28T12:33:52.103Z,0.15
2022-09-28T12:39:30.663Z,0.20
2022-09-28T12:44:34.098Z,0.20
2022-09-28T12:55:28.935Z,1.25
2022-09-28T13:00:43.265Z,0.28
2022-09-28T13:06:05.211Z,0.20
2022-09-28T13:11:25.221Z,0.20
2022-09-28T13:16:41.812Z,0.20
2022-09-28T13:21:57.728Z,0.15
2022-09-28T13:27:05.831Z,0.30
2022-09-28T13:32:09.537Z,0.35
2022-09-28T13:37:16.787Z,0.52
2022-09-28T13:42:24.454Z,0.22
2022-09-28T13:47:45.944Z,0.82
2022-09-28T13:52:56.705Z,0.40
2022-09-28T13:58:04.374Z,0.40
2022-09-28T14:03:14.853Z,0.40
2022-09-28T14:08:31.304Z,0.20
2022-09-28T14:13:41.919Z,0.20
2022-09-28T14:19:06.911Z,0.32
2022-09-28T14:24:30.893Z,0.30
2022-09-28T14:29:36.150Z,0.40
2022-09-28T14:34:42.453Z,0.30
2022-09-28T14:40:04.048Z,0.73
2022-09-28T14:45:07.236Z,0.30
2022-09-28T14:50:27.243Z,0.35
2022-09-28T14:55:40.631Z,0.20
2022-09-28T15:00:44.224Z,0.50
2022-09-28T15:05:47.581Z,0.35
2022-09-28T15:10:50.467Z,0.50
2022-09-28T15:15:56.517Z,0.20
2022-09-28T15:20:58.004Z,0.30
2022-09-28T15:25:59.299Z,0.40
2022-09-28T15:31:03.004Z,0.20
2022-09-28T15:36:07.203Z,0.28
2022-09-28T15:46:19.094Z,0.40
2022-09-28T15:51:21.963Z,0.63
2022-09-28T15:56:23.515Z,0.30
2022-09-28T16:01:42.448Z,0.32
2022-09-28T16:06:44.286Z,0.57
2022-09-28T16:11:47.690Z,0.50
2022-09-28T16:16:51.273Z,1.07
2022-09-28T16:21:55.659Z,0.40
2022-09-28T16:32:25.507Z,0.68
2022-09-28T16:37:31.785Z,0.30
2022-09-28T16:42:34.150Z,0.85
2022-09-28T16:47:35.889Z,0.57
2022-09-28T16:52:59.850Z,0.68
2022-09-28T16:58:05.033Z,0.40
2022-09-28T17:03:18.289Z,1.00
2022-09-28T17:08:22.916Z,1.63
2022-09-28T17:13:31.425Z,1.33
2022-09-28T17:18:32.760Z,1.20
2022-09-28T17:23:34.124Z,1.40
2022-09-28T17:28:36.760Z,1.38
2022-09-28T17:33:38.180Z,1.10
2022-09-28T17:38:39.767Z,1.48
2022-09-28T17:43:43.886Z,1.40
2022-09-28T17:48:47.515Z,0.93
2022-09-28T17:53:49.418Z,0.97
2022-09-28T17:58:51.043Z,1.13
2022-09-28T18:03:52.329Z,1.55
2022-09-28T18:08:53.594Z,2.28
2022-09-28T18:13:54.907Z,1.95
2022-09-28T18:18:58.032Z,1.70
2022-09-28T18:23:59.361Z,1.52
2022-09-28T18:29:00.715Z,2.17
2022-09-28T18:34:02.050Z,1.70
2022-09-28T18:39:03.884Z,1.83
2022-09-28T18:44:05.361Z,1.42
2022-09-28T18:49:06.756Z,1.90
2022-09-28T18:54:08.096Z,2.20
2022-09-28T18:59:12.275Z,2.40
2022-09-28T19:09:18.767Z,1.85
2022-09-28T19:14:20.257Z,2.35
2022-09-28T19:19:21.614Z,2.63
2022-09-28T19:24:22.941Z,2.05
2022-09-28T19:29:24.465Z,2.10
2022-09-28T19:34:29.826Z,2.35
2022-09-28T19:39:31.150Z,2.85
2022-09-28T19:44:33.161Z,2.53
2022-09-28T19:49:37.056Z,3.83
2022-09-28T19:54:38.364Z,2.55
2022-09-28T19:59:39.793Z,3.10
2022-09-28T20:04:41.145Z,3.00
2022-09-28T20:09:42.440Z,2.78
2022-09-28T20:14:43.845Z,2.90
2022-09-28T20:19:45.230Z,2.70
2022-09-28T20:24:46.568Z,2.88
2022-09-28T20:29:48.108Z,3.15
2022-09-28T20:34:49.655Z,3.15
2022-09-28T20:39:50.977Z,2.30
2022-09-28T20:44:52.477Z,2.80
2022-09-28T20:49:53.774Z,2.22
2022-09-28T20:54:55.057Z,2.65
2022-09-28T20:59:58.646Z,2.60
2022-09-28T21:05:00.036Z,2.80
2022-09-28T21:10:01.446Z,2.22
2022-09-28T21:15:05.965Z,2.83
2022-09-28T21:20:08.353Z,2.58
2022-09-28T21:25:09.601Z,1.88
2022-09-28T21:30:11.345Z,1.90
2022-09-28T21:35:12.738Z,2.00
2022-09-28T21:40:15.078Z,2.42
2022-09-28T21:45:17.248Z,2.60
2022-09-28T21:50:21.858Z,2.67
2022-09-28T21:55:23.641Z,2.40
2022-09-28T22:00:25.105Z,2.20
2022-09-28T22:05:27.023Z,3.05
2022-09-28T22:10:28.338Z,2.45
2022-09-28T22:15:30.187Z,2.03
2022-09-28T22:20:31.570Z,1.77
2022-09-28T22:25:32.856Z,1.50
2022-09-28T22:30:34.598Z,1.60
2022-09-28T22:35:35.845Z,1.52
2022-09-28T22:40:38.558Z,2.03
2022-09-28T22:45:39.870Z,2.10
2022-09-28T22:50:51.551Z,1.30
2022-09-28T22:55:52.875Z,1.85
2022-09-28T23:00:57.613Z,1.67
2022-09-28T23:05:58.930Z,2.22
2022-09-28T23:11:00.499Z,2.78
2022-09-28T23:16:04.827Z,3.10
2022-09-28T23:21:10.030Z,3.05
2022-09-28T23:26:21.147Z,2.95
2022-09-28T23:31:25.108Z,2.85
2022-09-28T23:36:27.524Z,3.00
2022-09-28T23:41:29.201Z,3.08
2022-09-28T23:46:30.858Z,3.28
2022-09-28T23:51:32.207Z,3.50
2022-09-28T23:56:33.468Z,3.33
